sensor_id;sensor_type;location;lat;lon;timestamp;temperature;humidity
33645;DHT22;19986;48.190;16.366;2022-12-07T05:05:53;8.70;99.90
33645;DHT22;19986;48.190;16.366;2022-12-07T05:08:35;8.70;99.90
33645;DHT22;19986;48.190;16.366;2022-12-07T05:11:02;8.70;99.90
33645;DHT22;19986;48.190;16.366;2022-12-07T05:13:28;8.80;99.90
33645;DHT22;19986;48.190;16.366;2022-12-07T05:15:54;8.80;99.90
33645;DHT22;19986;48.190;16.366;2022-12-07T05:18:20;8.80;99.90
33645;DHT22;19986;48.190;16.366;2022-12-07T05:20:46;8.80;99.90
33645;DHT22;19986;48.190;16.366;2022-12-07T05:23:12;8.80;99.90
33645;DHT22;19986;48.190;16.366;2022-12-07T05:25:38;8.80;99.90
33645;DHT22;19986;48.190;16.366;2022-12-07T05:28:05;8.80;99.90
33645;DHT22;19986;48.190;16.366;2022-12-07T05:30:31;8.80;99.90
33645;DHT22;19986;48.190;16.366;2022-12-07T05:32:57;8.80;99.90
33645;DHT22;19986;48.190;16.366;2022-12-07T05:35:23;8.80;99.90
33645;DHT22;19986;48.190;16.366;2022-12-07T05:37:49;8.80;99.90
33645;DHT22;19986;48.190;16.366;2022-12-07T05:40:15;8.80;99.90
33645;DHT22;19986;48.190;16.366;2022-12-07T05:42:42;8.80;99.90
33645;DHT22;19986;48.190;16.366;2022-12-07T05:45:08;8.80;99.90
33645;DHT22;19986;48.190;16.366;2022-12-07T05:47:35;8.80;99.90
33645;DHT22;19986;48.190;16.366;2022-12-07T05:50:01;8.80;99.90
33645;DHT22;19986;48.190;16.366;2022-12-07T05:52:27;8.70;99.90
33645;DHT22;19986;48.190;16.366;2022-12-07T05:54:53;8.80;99.90
33645;DHT22;19986;48.190;16.366;2022-12-07T05:57:19;8.70;99.90
33645;DHT22;19986;48.190;16.366;2022-12-07T05:59:45;8.70;99.90
33645;DHT22;19986;48.190;16.366;2022-12-07T06:02:13;8.70;99.90
33645;DHT22;19986;48.190;16.366;2022-12-07T06:04:42;8.70;99.90
33645;DHT22;19986;48.190;16.366;2022-12-07T06:07:09;8.70;99.90
33645;DHT22;19986;48.190;16.366;2022-12-07T06:09:35;8.70;99.90
33645;DHT22;19986;48.190;16.366;2022-12-07T06:12:02;8.70;99.90
33645;DHT22;19986;48.190;16.366;2022-12-07T06:14:47;8.70;99.90
33645;DHT22;19986;48.190;16.366;2022-12-07T06:17:15;8.70;99.90
33645;DHT22;19986;48.190;16.366;2022-12-07T06:19:41;8.80;99.90
33645;DHT22;19986;48.190;16.366;2022-12-07T06:22:07;8.80;99.90
33645;DHT22;19986;48.190;16.366;2022-12-07T06:24:35;8.80;99.90
33645;DHT22;19986;48.190;16.366;2022-12-07T06:27:01;8.80;99.90
33645;DHT22;19986;48.190;16.366;2022-12-07T06:29:27;8.80;99.90
33645;DHT22;19986;48.190;16.366;2022-12-07T06:31:53;8.80;99.90
33645;DHT22;19986;48.190;16.366;2022-12-07T06:34:20;8.80;99.90
33645;DHT22;19986;48.190;16.366;2022-12-07T06:36:47;8.80;99.90
33645;DHT22;19986;48.190;16.366;2022-12-07T06:39:18;8.80;99.90
33645;DHT22;19986;48.190;16.366;2022-12-07T06:41:44;8.80;99.90
33645;DHT22;19986;48.190;16.366;2022-12-07T06:44:10;8.80;99.90
33645;DHT22;19986;48.190;16.366;2022-12-07T06:46:35;8.80;99.90
33645;DHT22;19986;48.190;16.366;2022-12-07T06:49:02;8.80;99.90
33645;DHT22;19986;48.190;16.366;2022-12-07T06:51:28;8.80;99.90
33645;DHT22;19986;48.190;16.366;2022-12-07T06:53:55;8.80;99.90
33645;DHT22;19986;48.190;16.366;2022-12-07T06:56:21;8.90;99.90
33645;DHT22;19986;48.190;16.366;2022-12-07T06:58:48;8.90;99.90
33645;DHT22;19986;48.190;16.366;2022-12-07T07:01:16;8.90;99.90
33645;DHT22;19986;48.190;16.366;2022-12-07T07:03:43;8.90;99.90
33645;DHT22;19986;48.190;16.366;2022-12-07T07:06:10;8.90;99.90
33645;DHT22;19986;48.190;16.366;2022-12-07T07:08:37;8.90;99.90
33645;DHT22;19986;48.190;16.366;2022-12-07T07:11:03;8.90;99.90
33645;DHT22;19986;48.190;16.366;2022-12-07T07:13:29;8.90;99.90
33645;DHT22;19986;48.190;16.366;2022-12-07T07:15:55;9.00;99.90
33645;DHT22;19986;48.190;16.366;2022-12-07T07:18:21;9.00;99.90
33645;DHT22;19986;48.190;16.366;2022-12-07T07:20:47;9.00;99.90
33645;DHT22;19986;48.190;16.366;2022-12-07T07:23:13;9.00;99.90
33645;DHT22;19986;48.190;16.366;2022-12-07T07:25:39;9.00;99.90
33645;DHT22;19986;48.190;16.366;2022-12-07T07:28:05;9.00;99.90
33645;DHT22;19986;48.190;16.366;2022-12-07T07:30:31;9.10;99.90
33645;DHT22;19986;48.190;16.366;2022-12-07T07:33:01;9.10;99.90
33645;DHT22;19986;48.190;16.366;2022-12-07T07:35:28;9.10;99.90
33645;DHT22;19986;48.190;16.366;2022-12-07T07:37:55;9.10;99.90
33645;DHT22;19986;48.190;16.366;2022-12-07T07:40:21;9.20;99.90
33645;DHT22;19986;48.190;16.366;2022-12-07T07:42:48;9.20;99.90
33645;DHT22;19986;48.190;16.366;2022-12-07T07:45:14;9.30;99.90
33645;DHT22;19986;48.190;16.366;2022-12-07T07:47:40;9.30;99.90
33645;DHT22;19986;48.190;16.366;2022-12-07T07:50:06;9.40;99.90
33645;DHT22;19986;48.190;16.366;2022-12-07T07:52:32;9.30;99.90
33645;DHT22;19986;48.190;16.366;2022-12-07T07:54:58;9.30;99.90
33645;DHT22;19986;48.190;16.366;2022-12-07T07:57:24;9.30;99.90
33645;DHT22;19986;48.190;16.366;2022-12-07T07:59:50;9.30;99.90
33645;DHT22;19986;48.190;16.366;2022-12-07T08:02:17;9.30;99.90
33645;DHT22;19986;48.190;16.366;2022-12-07T08:04:44;9.20;99.90
33645;DHT22;19986;48.190;16.366;2022-12-07T08:07:11;9.20;99.90
33645;DHT22;19986;48.190;16.366;2022-12-07T08:09:37;9.20;99.90
33645;DHT22;19986;48.190;16.366;2022-12-07T08:12:04;9.20;99.90
33645;DHT22;19986;48.190;16.366;2022-12-07T08:14:30;9.20;99.90
33645;DHT22;19986;48.190;16.366;2022-12-07T08:16:57;9.30;99.90
33645;DHT22;19986;48.190;16.366;2022-12-07T08:19:23;9.40;99.90
33645;DHT22;19986;48.190;16.366;2022-12-07T08:21:49;9.40;99.90
33645;DHT22;19986;48.190;16.366;2022-12-07T08:24:15;9.30;99.90
33645;DHT22;19986;48.190;16.366;2022-12-07T08:26:41;9.40;99.90
33645;DHT22;19986;48.190;16.366;2022-12-07T08:29:07;9.30;99.90
33645;DHT22;19986;48.190;16.366;2022-12-07T08:31:33;9.40;99.90
33645;DHT22;19986;48.190;16.366;2022-12-07T08:33:59;9.40;99.90
33645;DHT22;19986;48.190;16.366;2022-12-07T08:36:25;9.50;99.90
33645;DHT22;19986;48.190;16.366;2022-12-07T08:38:51;9.50;99.90
33645;DHT22;19986;48.190;16.366;2022-12-07T08:41:17;9.60;99.90
33645;DHT22;19986;48.190;16.366;2022-12-07T08:43:43;9.60;99.90
33645;DHT22;19986;48.190;16.366;2022-12-07T08:46:19;9.60;99.90
33645;DHT22;19986;48.190;16.366;2022-12-07T08:49:02;9.50;99.90
33645;DHT22;19986;48.190;16.366;2022-12-07T08:51:29;9.60;99.90
33645;DHT22;19986;48.190;16.366;2022-12-07T08:53:56;9.60;99.90
33645;DHT22;19986;48.190;16.366;2022-12-07T08:56:24;9.60;99.90
33645;DHT22;19986;48.190;16.366;2022-12-07T08:58:50;9.60;99.90
33645;DHT22;19986;48.190;16.366;2022-12-07T09:01:32;9.70;99.90
33645;DHT22;19986;48.190;16.366;2022-12-07T09:03:58;9.70;99.90
33645;DHT22;19986;48.190;16.366;2022-12-07T09:06:24;9.60;99.90
33645;DHT22;19986;48.190;16.366;2022-12-07T09:08:55;9.70;99.90
33645;DHT22;19986;48.190;16.366;2022-12-07T09:11:22;9.70;99.90
33645;DHT22;19986;48.190;16.366;2022-12-07T09:13:47;9.70;99.90
33645;DHT22;19986;48.190;16.366;2022-12-07T09:16:13;9.70;99.90
33645;DHT22;19986;48.190;16.366;2022-12-07T09:18:39;9.70;99.90
33645;DHT22;19986;48.190;16.366;2022-12-07T09:21:05;9.70;99.90
33645;DHT22;19986;48.190;16.366;2022-12-07T09:23:31;9.60;99.90
33645;DHT22;19986;48.190;16.366;2022-12-07T09:26:01;9.50;99.90
33645;DHT22;19986;48.190;16.366;2022-12-07T09:28:27;9.40;99.90
33645;DHT22;19986;48.190;16.366;2022-12-07T09:30:53;9.20;99.90
33645;DHT22;19986;48.190;16.366;2022-12-07T09:33:19;9.10;99.90
33645;DHT22;19986;48.190;16.366;2022-12-07T09:35:50;9.00;99.90
33645;DHT22;19986;48.190;16.366;2022-12-07T09:38:17;8.90;99.90
33645;DHT22;19986;48.190;16.366;2022-12-07T09:40:43;8.80;99.90
33645;DHT22;19986;48.190;16.366;2022-12-07T09:43:20;8.90;99.90
33645;DHT22;19986;48.190;16.366;2022-12-07T09:45:48;8.90;99.90
33645;DHT22;19986;48.190;16.366;2022-12-07T09:48:36;8.80;99.90
33645;DHT22;19986;48.190;16.366;2022-12-07T09:51:10;8.80;99.90
33645;DHT22;19986;48.190;16.366;2022-12-07T09:53:39;8.90;99.90
33645;DHT22;19986;48.190;16.366;2022-12-07T09:56:05;8.90;99.90
33645;DHT22;19986;48.190;16.366;2022-12-07T09:58:33;8.80;99.90
33645;DHT22;19986;48.190;16.366;2022-12-07T10:03:42;8.80;99.90
33645;DHT22;19986;48.190;16.366;2022-12-07T10:06:12;8.80;99.90
33645;DHT22;19986;48.190;16.366;2022-12-07T10:08:38;8.80;99.90
33645;DHT22;19986;48.190;16.366;2022-12-07T10:11:07;8.80;99.90
33645;DHT22;19986;48.190;16.366;2022-12-07T10:13:42;8.80;99.90
33645;DHT22;19986;48.190;16.366;2022-12-07T10:18:53;8.90;99.90
33645;DHT22;19986;48.190;16.366;2022-12-07T10:21:26;8.90;99.90
33645;DHT22;19986;48.190;16.366;2022-12-07T10:26:38;9.10;99.90
33645;DHT22;19986;48.190;16.366;2022-12-07T10:29:19;9.20;99.90
33645;DHT22;19986;48.190;16.366;2022-12-07T10:31:55;9.20;99.90
33645;DHT22;19986;48.190;16.366;2022-12-07T10:34:29;9.20;99.90
33645;DHT22;19986;48.190;16.366;2022-12-07T10:39:43;9.30;99.90
33645;DHT22;19986;48.190;16.366;2022-12-07T10:42:30;9.40;99.90
33645;DHT22;19986;48.190;16.366;2022-12-07T10:45:17;9.40;99.90
33645;DHT22;19986;48.190;16.366;2022-12-07T10:48:12;9.50;99.90
33645;DHT22;19986;48.190;16.366;2022-12-07T10:53:59;9.60;99.90
33645;DHT22;19986;48.190;16.366;2022-12-07T10:57:17;9.50;99.90
33645;DHT22;19986;48.190;16.366;2022-12-07T10:59:41;9.40;99.90
33645;DHT22;19986;48.190;16.366;2022-12-07T11:02:20;9.40;99.90
33645;DHT22;19986;48.190;16.366;2022-12-07T11:18:51;9.70;99.90
33645;DHT22;19986;48.190;16.366;2022-12-07T11:21:25;9.70;99.90
33645;DHT22;19986;48.190;16.366;2022-12-07T11:24:10;9.70;99.90
33645;DHT22;19986;48.190;16.366;2022-12-07T11:29:42;9.80;99.90
33645;DHT22;19986;48.190;16.366;2022-12-07T11:38:01;9.80;99.90
33645;DHT22;19986;48.190;16.366;2022-12-07T11:40:36;9.70;99.90
33645;DHT22;19986;48.190;16.366;2022-12-07T11:43:21;9.60;99.90
33645;DHT22;19986;48.190;16.366;2022-12-07T11:48:34;9.40;99.90
33645;DHT22;19986;48.190;16.366;2022-12-07T11:51:02;9.30;99.90
33645;DHT22;19986;48.190;16.366;2022-12-07T11:53:39;9.20;99.90
33645;DHT22;19986;48.190;16.366;2022-12-07T11:56:20;9.00;99.90
33645;DHT22;19986;48.190;16.366;2022-12-07T11:59:15;9.00;99.90
33645;DHT22;19986;48.190;16.366;2022-12-07T12:02:16;9.00;99.90
33645;DHT22;19986;48.190;16.366;2022-12-07T12:17:22;8.90;99.90
33645;DHT22;19986;48.190;16.366;2022-12-07T12:25:40;9.00;99.90
33645;DHT22;19986;48.190;16.366;2022-12-07T12:28:34;9.10;99.90
33645;DHT22;19986;48.190;16.366;2022-12-07T12:33:50;9.20;99.90
33645;DHT22;19986;48.190;16.366;2022-12-07T12:51:53;9.20;99.90
33645;DHT22;19986;48.190;16.366;2022-12-07T12:54:38;9.20;99.90
33645;DHT22;19986;48.190;16.366;2022-12-07T12:57:18;9.20;99.90
33645;DHT22;19986;48.190;16.366;2022-12-07T13:02:30;9.10;99.90
33645;DHT22;19986;48.190;16.366;2022-12-07T13:07:58;9.00;99.90
33645;DHT22;19986;48.190;16.366;2022-12-07T13:18:36;9.00;99.90
33645;DHT22;19986;48.190;16.366;2022-12-07T13:34:33;9.10;99.90
33645;DHT22;19986;48.190;16.366;2022-12-07T13:37:23;9.10;99.90
33645;DHT22;19986;48.190;16.366;2022-12-07T13:40:05;9.00;99.90
33645;DHT22;19986;48.190;16.366;2022-12-07T13:42:43;9.00;99.90
33645;DHT22;19986;48.190;16.366;2022-12-07T13:45:29;9.00;99.90
33645;DHT22;19986;48.190;16.366;2022-12-07T13:48:35;9.00;99.90
33645;DHT22;19986;48.190;16.366;2022-12-07T13:51:03;9.00;99.90
33645;DHT22;19986;48.190;16.366;2022-12-07T13:53:30;9.00;99.90
33645;DHT22;19986;48.190;16.366;2022-12-07T13:55:57;9.00;99.90
33645;DHT22;19986;48.190;16.366;2022-12-07T13:58:25;9.10;99.90
33645;DHT22;19986;48.190;16.366;2022-12-07T14:00:52;9.10;99.90
33645;DHT22;19986;48.190;16.366;2022-12-07T14:05:44;9.10;99.90
33645;DHT22;19986;48.190;16.366;2022-12-07T14:10:38;9.10;99.90
33645;DHT22;19986;48.190;16.366;2022-12-07T14:15:53;9.00;99.90
33645;DHT22;19986;48.190;16.366;2022-12-07T14:18:49;9.00;99.90
33645;DHT22;19986;48.190;16.366;2022-12-07T14:21:16;8.90;99.90
33645;DHT22;19986;48.190;16.366;2022-12-07T14:23:46;8.90;99.90
33645;DHT22;19986;48.190;16.366;2022-12-07T14:26:27;8.90;99.90
33645;DHT22;19986;48.190;16.366;2022-12-07T14:31:52;8.90;99.90
33645;DHT22;19986;48.190;16.366;2022-12-07T14:34:22;8.90;99.90
33645;DHT22;19986;48.190;16.366;2022-12-07T14:36:49;8.90;99.90
33645;DHT22;19986;48.190;16.366;2022-12-07T14:39:15;8.90;99.90
33645;DHT22;19986;48.190;16.366;2022-12-07T14:41:56;8.90;99.90
33645;DHT22;19986;48.190;16.366;2022-12-07T14:44:23;8.80;99.90
33645;DHT22;19986;48.190;16.366;2022-12-07T14:46:50;8.80;99.90
33645;DHT22;19986;48.190;16.366;2022-12-07T14:49:16;8.90;99.90
33645;DHT22;19986;48.190;16.366;2022-12-07T14:51:45;8.80;99.90
33645;DHT22;19986;48.190;16.366;2022-12-07T14:54:17;8.70;99.90
33645;DHT22;19986;48.190;16.366;2022-12-07T14:56:45;8.70;99.90
33645;DHT22;19986;48.190;16.366;2022-12-07T14:59:15;8.60;99.90
33645;DHT22;19986;48.190;16.366;2022-12-07T15:01:42;8.70;99.90
33645;DHT22;19986;48.190;16.366;2022-12-07T15:04:08;8.70;99.90
33645;DHT22;19986;48.190;16.366;2022-12-07T15:06:35;8.70;99.90
33645;DHT22;19986;48.190;16.366;2022-12-07T15:09:02;8.80;99.90
33645;DHT22;19986;48.190;16.366;2022-12-07T15:11:29;8.80;99.90
33645;DHT22;19986;48.190;16.366;2022-12-07T15:13:55;8.80;99.90
33645;DHT22;19986;48.190;16.366;2022-12-07T15:16:39;8.80;99.90
33645;DHT22;19986;48.190;16.366;2022-12-07T15:19:14;8.80;99.90
33645;DHT22;19986;48.190;16.366;2022-12-07T15:21:42;8.80;99.90
33645;DHT22;19986;48.190;16.366;2022-12-07T15:24:11;8.80;99.90
33645;DHT22;19986;48.190;16.366;2022-12-07T15:26:39;8.80;99.90
33645;DHT22;19986;48.190;16.366;2022-12-07T15:29:07;8.70;99.90
33645;DHT22;19986;48.190;16.366;2022-12-07T15:31:34;8.80;99.90
33645;DHT22;19986;48.190;16.366;2022-12-07T15:34:01;8.80;99.90
33645;DHT22;19986;48.190;16.366;2022-12-07T15:36:30;8.80;99.90
33645;DHT22;19986;48.190;16.366;2022-12-07T15:38:56;8.80;99.90
33645;DHT22;19986;48.190;16.366;2022-12-07T15:41:22;8.80;99.90
33645;DHT22;19986;48.190;16.366;2022-12-07T15:43:49;8.80;99.90
33645;DHT22;19986;48.190;16.366;2022-12-07T15:46:36;8.80;99.90
33645;DHT22;19986;48.190;16.366;2022-12-07T15:49:05;8.80;99.90
33645;DHT22;19986;48.190;16.366;2022-12-07T15:51:35;8.80;99.90
33645;DHT22;19986;48.190;16.366;2022-12-07T15:54:01;8.80;99.90
33645;DHT22;19986;48.190;16.366;2022-12-07T15:56:26;8.70;99.90
33645;DHT22;19986;48.190;16.366;2022-12-07T15:58:52;8.70;99.90
33645;DHT22;19986;48.190;16.366;2022-12-07T16:01:19;8.70;99.90
33645;DHT22;19986;48.190;16.366;2022-12-07T16:03:46;8.80;99.90
33645;DHT22;19986;48.190;16.366;2022-12-07T16:06:16;8.80;99.90
33645;DHT22;19986;48.190;16.366;2022-12-07T16:08:46;8.70;99.90
33645;DHT22;19986;48.190;16.366;2022-12-07T16:11:12;8.70;99.90
33645;DHT22;19986;48.190;16.366;2022-12-07T16:13:38;8.70;99.90
33645;DHT22;19986;48.190;16.366;2022-12-07T16:16:10;8.60;99.90
33645;DHT22;19986;48.190;16.366;2022-12-07T16:18:37;8.50;99.90
33645;DHT22;19986;48.190;16.366;2022-12-07T16:21:14;8.50;99.90
33645;DHT22;19986;48.190;16.366;2022-12-07T16:23:41;8.40;99.90
33645;DHT22;19986;48.190;16.366;2022-12-07T16:26:18;8.50;99.90
33645;DHT22;19986;48.190;16.366;2022-12-07T16:28:45;8.40;99.90
33645;DHT22;19986;48.190;16.366;2022-12-07T16:31:14;8.30;99.90
33645;DHT22;19986;48.190;16.366;2022-12-07T16:33:41;8.30;99.90
33645;DHT22;19986;48.190;16.366;2022-12-07T16:36:09;8.30;99.90
33645;DHT22;19986;48.190;16.366;2022-12-07T16:38:36;8.20;99.90
33645;DHT22;19986;48.190;16.366;2022-12-07T16:41:02;8.20;99.90
33645;DHT22;19986;48.190;16.366;2022-12-07T16:43:28;8.30;99.90
33645;DHT22;19986;48.190;16.366;2022-12-07T16:45:54;8.30;99.90
33645;DHT22;19986;48.190;16.366;2022-12-07T16:48:20;8.20;99.90
33645;DHT22;19986;48.190;16.366;2022-12-07T16:50:46;8.10;99.90
33645;DHT22;19986;48.190;16.366;2022-12-07T16:53:13;8.10;99.90
33645;DHT22;19986;48.190;16.366;2022-12-07T16:55:45;8.10;99.90
33645;DHT22;19986;48.190;16.366;2022-12-07T16:58:12;8.10;99.90
33645;DHT22;19986;48.190;16.366;2022-12-07T17:00:39;8.10;99.90
33645;DHT22;19986;48.190;16.366;2022-12-07T17:03:06;8.10;99.90
33645;DHT22;19986;48.190;16.366;2022-12-07T17:05:32;8.10;99.90
33645;DHT22;19986;48.190;16.366;2022-12-07T17:07:58;8.10;99.90
33645;DHT22;19986;48.190;16.366;2022-12-07T17:10:25;8.10;99.90
33645;DHT22;19986;48.190;16.366;2022-12-07T17:12:51;8.00;99.90
33645;DHT22;19986;48.190;16.366;2022-12-07T17:15:17;8.00;99.90
33645;DHT22;19986;48.190;16.366;2022-12-07T17:17:56;8.00;99.90
33645;DHT22;19986;48.190;16.366;2022-12-07T17:20:26;8.10;99.90
33645;DHT22;19986;48.190;16.366;2022-12-07T17:22:52;8.10;99.90
33645;DHT22;19986;48.190;16.366;2022-12-07T17:25:19;8.10;99.90
33645;DHT22;19986;48.190;16.366;2022-12-07T17:27:46;8.20;99.90
33645;DHT22;19986;48.190;16.366;2022-12-07T17:30:13;8.10;99.90
33645;DHT22;19986;48.190;16.366;2022-12-07T17:32:39;8.10;99.90
33645;DHT22;19986;48.190;16.366;2022-12-07T17:35:06;8.20;99.90
33645;DHT22;19986;48.190;16.366;2022-12-07T17:37:32;8.20;99.90
33645;DHT22;19986;48.190;16.366;2022-12-07T17:39:58;8.20;99.90
33645;DHT22;19986;48.190;16.366;2022-12-07T17:42:25;8.20;99.90
33645;DHT22;19986;48.190;16.366;2022-12-07T17:45:09;8.20;99.90
33645;DHT22;19986;48.190;16.366;2022-12-07T17:47:37;8.20;99.90
33645;DHT22;19986;48.190;16.366;2022-12-07T17:50:05;8.20;99.90
33645;DHT22;19986;48.190;16.366;2022-12-07T17:52:32;8.10;99.90
33645;DHT22;19986;48.190;16.366;2022-12-07T17:55:16;8.10;99.90
33645;DHT22;19986;48.190;16.366;2022-12-07T17:57:42;8.10;99.90
33645;DHT22;19986;48.190;16.366;2022-12-07T18:00:09;8.00;99.90
33645;DHT22;19986;48.190;16.366;2022-12-07T18:02:36;8.00;99.90
33645;DHT22;19986;48.190;16.366;2022-12-07T18:05:03;8.00;99.90
33645;DHT22;19986;48.190;16.366;2022-12-07T18:07:29;7.90;99.90
33645;DHT22;19986;48.190;16.366;2022-12-07T18:09:55;7.90;99.90
33645;DHT22;19986;48.190;16.366;2022-12-07T18:12:22;7.90;99.90
33645;DHT22;19986;48.190;16.366;2022-12-07T18:14:48;8.00;99.90
33645;DHT22;19986;48.190;16.366;2022-12-07T18:17:17;8.00;99.90
33645;DHT22;19986;48.190;16.366;2022-12-07T18:19:45;8.00;99.90
33645;DHT22;19986;48.190;16.366;2022-12-07T18:22:11;7.90;99.90
33645;DHT22;19986;48.190;16.366;2022-12-07T18:24:37;7.90;99.90
33645;DHT22;19986;48.190;16.366;2022-12-07T18:27:05;7.90;99.90
33645;DHT22;19986;48.190;16.366;2022-12-07T18:29:31;7.90;99.90
33645;DHT22;19986;48.190;16.366;2022-12-07T18:31:57;7.90;99.90
33645;DHT22;19986;48.190;16.366;2022-12-07T18:34:23;7.90;99.90
33645;DHT22;19986;48.190;16.366;2022-12-07T18:36:50;8.00;99.90
33645;DHT22;19986;48.190;16.366;2022-12-07T18:39:18;8.00;99.90
33645;DHT22;19986;48.190;16.366;2022-12-07T18:41:44;8.00;99.90
33645;DHT22;19986;48.190;16.366;2022-12-07T18:44:11;8.10;99.90
33645;DHT22;19986;48.190;16.366;2022-12-07T18:46:41;8.10;99.90
33645;DHT22;19986;48.190;16.366;2022-12-07T18:49:11;8.00;99.90
33645;DHT22;19986;48.190;16.366;2022-12-07T18:51:38;8.10;99.90
33645;DHT22;19986;48.190;16.366;2022-12-07T18:54:04;8.10;99.90
33645;DHT22;19986;48.190;16.366;2022-12-07T18:56:31;8.10;99.90
33645;DHT22;19986;48.190;16.366;2022-12-07T18:58:59;8.10;99.90
33645;DHT22;19986;48.190;16.366;2022-12-07T19:01:46;8.10;99.90
33645;DHT22;19986;48.190;16.366;2022-12-07T19:04:13;8.20;99.90
33645;DHT22;19986;48.190;16.366;2022-12-07T19:06:44;8.20;99.90
33645;DHT22;19986;48.190;16.366;2022-12-07T19:09:12;8.20;99.90
33645;DHT22;19986;48.190;16.366;2022-12-07T19:11:39;8.20;99.90
33645;DHT22;19986;48.190;16.366;2022-12-07T19:16:46;8.20;99.90
33645;DHT22;19986;48.190;16.366;2022-12-07T19:19:18;8.20;99.90
33645;DHT22;19986;48.190;16.366;2022-12-07T19:21:46;8.20;99.90
33645;DHT22;19986;48.190;16.366;2022-12-07T19:24:16;8.30;99.90
33645;DHT22;19986;48.190;16.366;2022-12-07T19:26:43;8.30;99.90
33645;DHT22;19986;48.190;16.366;2022-12-07T19:29:09;8.30;99.90
33645;DHT22;19986;48.190;16.366;2022-12-07T19:31:36;8.30;99.90
33645;DHT22;19986;48.190;16.366;2022-12-07T19:34:10;8.30;99.90
33645;DHT22;19986;48.190;16.366;2022-12-07T19:36:37;8.40;99.90
33645;DHT22;19986;48.190;16.366;2022-12-07T19:39:04;8.40;99.90
33645;DHT22;19986;48.190;16.366;2022-12-07T19:41:32;8.40;99.90
33645;DHT22;19986;48.190;16.366;2022-12-07T19:44:01;8.40;99.90
33645;DHT22;19986;48.190;16.366;2022-12-07T19:46:29;8.40;99.90
33645;DHT22;19986;48.190;16.366;2022-12-07T19:48:56;8.50;99.90
33645;DHT22;19986;48.190;16.366;2022-12-07T19:51:23;8.50;99.90
33645;DHT22;19986;48.190;16.366;2022-12-07T19:53:50;8.50;99.90
33645;DHT22;19986;48.190;16.366;2022-12-07T19:56:18;8.50;99.90
33645;DHT22;19986;48.190;16.366;2022-12-07T19:58:45;8.50;99.90
33645;DHT22;19986;48.190;16.366;2022-12-07T20:01:13;8.50;99.90
33645;DHT22;19986;48.190;16.366;2022-12-07T20:03:40;8.50;99.90
33645;DHT22;19986;48.190;16.366;2022-12-07T20:06:11;8.60;99.90
33645;DHT22;19986;48.190;16.366;2022-12-07T20:08:39;8.60;99.90
33645;DHT22;19986;48.190;16.366;2022-12-07T20:11:05;8.60;99.90
33645;DHT22;19986;48.190;16.366;2022-12-07T20:13:51;8.70;99.90
33645;DHT22;19986;48.190;16.366;2022-12-07T20:16:18;8.70;99.90
33645;DHT22;19986;48.190;16.366;2022-12-07T20:18:45;8.70;99.90
33645;DHT22;19986;48.190;16.366;2022-12-07T20:21:12;8.70;99.90
33645;DHT22;19986;48.190;16.366;2022-12-07T20:23:40;8.60;99.90
33645;DHT22;19986;48.190;16.366;2022-12-07T20:26:08;8.70;99.90
33645;DHT22;19986;48.190;16.366;2022-12-07T20:28:35;8.70;99.90
33645;DHT22;19986;48.190;16.366;2022-12-07T20:31:02;8.70;99.90
33645;DHT22;19986;48.190;16.366;2022-12-07T20:33:29;8.80;99.90
33645;DHT22;19986;48.190;16.366;2022-12-07T20:36:02;8.80;99.90
33645;DHT22;19986;48.190;16.366;2022-12-07T20:38:29;8.70;99.90
33645;DHT22;19986;48.190;16.366;2022-12-07T20:41:02;8.70;99.90
33645;DHT22;19986;48.190;16.366;2022-12-07T20:43:29;8.60;99.90
33645;DHT22;19986;48.190;16.366;2022-12-07T20:45:57;8.60;99.90
33645;DHT22;19986;48.190;16.366;2022-12-07T20:48:24;8.50;99.90
33645;DHT22;19986;48.190;16.366;2022-12-07T20:50:52;8.50;99.90
33645;DHT22;19986;48.190;16.366;2022-12-07T20:53:18;8.40;99.90
33645;DHT22;19986;48.190;16.366;2022-12-07T20:55:44;8.30;99.90
33645;DHT22;19986;48.190;16.366;2022-12-07T20:58:11;8.30;99.90
